Latest Weather Observations for Shepparton

IDV60801

Issued at 2:12 pm EDT Sunday 16 December 2018 (issued every 10 minutes, with the page automatically refreshed every 10 minutes)

About weather observations | Map of weather stations | Latest weather observations for VIC | Other Formats
Station Details ID: 081125 Name: SHEPPARTON AIRPORT Lat: -36.43 Lon: 145.39 Height: 113.9 m
Data from the previous 72 hours. | See also: Recent months at Shepparton
Date/Time
EDT
Temp
°C
App
Temp
°C
Dew
Point
°C
Rel
Hum
%
Delta-T
°C
Wind Press
QNH
hPa
Press
MSL
hPa
Rain since
9am
mm
Dir  Spd
km/h
Gust
km/h
Spd
kts
Gust
kts
16/02:00pm 19.1 17.6 13.1 68 3.4 NNW 13 19 7 10 1007.4 1007.0 1.8
16/01:30pm 19.2 18.2 13.4 69 3.3 NNW 11 17 6 9 1007.5 1007.1 1.8
16/01:00pm 19.2 18.6 14.5 74 2.7 NNW 11 17 6 9 1007.7 1007.3 1.8
16/12:30pm 18.4 17.1 13.7 74 2.7 NNW 13 19 7 10 1007.8 1007.4 1.8
16/12:00pm 17.5 16.6 14.8 84 1.6 NW 13 19 7 10 1008.1 1007.7 1.8
16/11:30am 16.3 16.0 14.3 88 1.1 NNE 9 13 5 7 1008.1 1007.7 1.6
16/11:00am 15.4 15.3 13.8 90 0.9 N 7 11 4 6 1008.1 1007.7 1.6
16/10:30am 15.5 16.7 13.7 89 1.0 CALM 0 0 0 0 1008.1 1007.7 1.0
16/10:00am 15.5 14.4 13.2 86 1.3 WNW 11 13 6 7 1008.2 1007.8 0.4
16/09:30am 16.0 15.0 13.3 84 1.5 W 11 15 6 8 1008.0 1007.6 0.0
16/09:00am 16.3 13.9 12.8 80 2.0 W 17 20 9 11 1007.8 1007.4 3.2
16/08:30am 16.5 15.6 13.6 83 1.6 WNW 11 17 6 9 1007.5 1007.1 3.2
16/08:00am 16.1 14.9 13.9 87 1.3 NNW 13 15 7 8 1007.1 1006.7 3.2
16/07:30am 15.7 15.3 14.1 90 0.9 NNW 9 13 5 7 1006.5 1006.1 3.2
16/07:00am 15.1 16.7 14.9 99 0.1 CALM 0 6 0 3 1006.1 1005.7 3.2
16/06:30am 13.8 14.9 13.6 99 0.1 CALM 0 6 0 3 1005.6 1005.2 3.2
16/06:00am 13.5 14.2 13.3 99 0.1 ENE 2 6 1 3 1005.0 1004.6 3.2
16/05:30am 13.9 13.9 13.6 98 0.2 ENE 6 11 3 6 1004.6 1004.2 3.2
16/05:00am 13.5 14.1 13.0 97 0.3 ENE 2 7 1 4 1004.6 1004.2 3.2
16/04:30am 13.9 14.6 13.3 96 0.3 ENE 2 9 1 5 1004.5 1004.1 3.2
16/04:00am 14.2 15.3 13.4 95 0.4 CALM 0 2 0 1 1004.4 1004.0 3.2
16/03:30am 14.3 15.0 13.3 94 0.6 ENE 2 7 1 4 1004.3 1003.9 3.2
16/03:00am 14.8 15.5 13.3 91 0.8 ENE 2 9 1 5 1004.3 1003.9 3.2
16/02:30am 15.1 15.0 13.3 89 1.0 ENE 6 7 3 4 1004.3 1003.9 3.2
16/02:00am 15.6 15.0 13.6 88 1.1 E 9 11 5 6 1004.3 1003.9 3.2
16/01:30am 16.0 16.0 13.5 85 1.4 E 6 11 3 6 1004.5 1004.1 3.2
16/01:00am 16.6 16.0 13.5 82 1.8 E 9 15 5 8 1004.8 1004.4 3.2
16/12:30am 16.7 16.3 14.0 84 1.5 E 9 11 5 6 1004.9 1004.5 3.2
16/12:00am 16.7 15.8 13.8 83 1.7 E 11 15 6 8 1005.0 1004.6 3.2
 
Date/Time
EDT
Temp
°C
App
Temp
°C
Dew
Point
°C
Rel
Hum
%
Delta-T
°C
Wind Press
QNH
hPa
Press
MSL
hPa
Rain since
9am
mm
Dir  Spd
km/h
Gust
km/h
Spd
kts
Gust
kts
15/11:30pm 16.9 15.6 13.6 81 1.9 E 13 17 7 9 1005.1 1004.7 3.2
15/11:00pm 17.7 16.8 12.6 72 2.9 ENE 9 15 5 8 1005.1 1004.7 3.0
15/10:30pm 18.7 20.0 14.2 75 2.6 CALM 0 0 0 0 1005.3 1004.9 2.6
15/10:00pm 18.7 18.5 13.1 70 3.2 E 6 7 3 4 1004.9 1004.5 2.6
15/09:30pm 18.8 18.0 12.8 68 3.4 E 9 11 5 6 1004.6 1004.2 2.6
15/09:00pm 19.5 18.4 12.0 62 4.2 N 9 11 5 6 1004.4 1004.0 2.6
15/08:30pm 19.9 18.9 10.9 56 4.9 N 7 11 4 6 1004.0 1003.6 2.6
15/08:00pm 20.3 19.2 10.7 54 5.3 N 7 11 4 6 1003.9 1003.5 2.6
15/07:30pm 20.5 18.5 10.0 51 5.7 N 11 15 6 8 1003.8 1003.4 2.6
15/07:00pm 20.8 19.8 10.3 51 5.7 NNE 6 13 3 7 1003.8 1003.4 2.6
15/06:30pm 20.1 17.1 10.5 54 5.2 NNW 17 26 9 14 1003.7 1003.3 2.6
15/06:02pm 20.3 15.1 10.4 53 5.4 NNW 28 46 15 25 1003.8 1003.4 2.6
15/06:00pm 20.3 14.9 11.0 55 5.1 NNW 30 46 16 25 1003.7 1003.3 2.6
15/05:53pm 21.3 17.1 9.9 48 6.2 NNW 22 44 12 24 1003.7 1003.3 2.6
15/05:30pm 22.6 18.9 9.4 43 7.1 NW 19 26 10 14 1003.4 1003.0 2.6
15/05:00pm 22.6 18.2 9.0 42 7.3 NNW 22 32 12 17 1003.6 1003.2 2.6
15/04:30pm 23.7 19.0 9.3 40 7.8 N 24 37 13 20 1003.8 1003.4 2.6
15/04:00pm 24.1 18.1 10.0 41 7.8 NNE 32 50 17 27 1003.9 1003.5 2.6
15/03:52pm 23.2 17.6 8.9 40 7.7 N 28 46 15 25 1004.0 1003.6 2.6
15/03:30pm 23.6 17.5 9.6 41 7.6 N 32 44 17 24 1004.2 1003.8 2.6
15/03:19pm 24.1 18.6 10.4 42 7.6 N 30 50 16 27 1004.2 1003.8 2.6
15/03:00pm 23.2 18.9 10.9 46 6.9 N 24 33 13 18 1004.5 1004.1 2.6
15/02:30pm 21.4 18.5 11.1 52 5.7 N 17 26 9 14 1005.0 1004.6 2.6
15/02:00pm 19.1 14.3 12.8 67 3.6 NNW 30 43 16 23 1005.3 1004.9 2.6
15/01:49pm 19.8 15.0 11.6 59 4.6 NNE 28 54 15 29 1005.4 1005.0 2.6
15/01:30pm 21.4 17.6 12.5 57 5.1 N 24 32 13 17 1005.4 1005.0 2.6
15/01:00pm 20.5 19.6 13.7 65 3.9 NNE 11 19 6 10 1005.5 1005.1 2.6
15/12:30pm 18.7 17.6 14.4 76 2.5 NNE 13 19 7 10 1005.9 1005.5 2.6
15/12:00pm 18.3 17.2 15.2 82 1.8 NNE 15 22 8 12 1006.1 1005.7 2.6
15/11:30am 17.2 18.9 15.2 88 1.2 CALM 0 2 0 1 1005.8 1005.4 2.4
15/11:00am 17.0 16.8 14.8 87 1.3 SE 9 15 5 8 1005.3 1004.9 2.2
15/10:30am 16.4 15.9 14.9 91 0.9 SE 11 15 6 8 1005.1 1004.7 2.2
15/10:00am 16.2 16.4 14.2 88 1.1 SW 6 9 3 5 1005.3 1004.9 1.6
15/09:30am 15.7 15.0 14.4 92 0.7 SSE 11 19 6 10 1005.4 1005.0 1.6
15/09:00am 15.1 13.4 12.6 85 1.4 SSW 13 17 7 9 1005.5 1005.1 0.4
15/08:30am 15.4 14.0 12.2 81 1.8 WNW 11 13 6 7 1005.8 1005.4 0.2
15/08:00am 15.9 12.2 11.5 75 2.4 NW 22 30 12 16 1005.2 1004.8 0.0
15/07:30am 16.0 15.1 13.7 86 1.3 N 11 19 6 10 1005.0 1004.6 0.0
15/07:00am 15.8 17.2 14.5 92 0.7 CALM 0 4 0 2 1004.0 1003.6 0.0
15/06:30am 15.3 15.9 14.3 94 0.6 NNW 4 7 2 4 1004.2 1003.8 0.0
15/06:00am 15.6 15.9 14.5 93 0.6 NW 6 9 3 5 1003.7 1003.3 0.0
15/05:30am 15.7 15.9 14.6 93 0.6 WSW 7 11 4 6 1003.5 1003.1 0.0
15/05:00am 15.5 15.4 13.9 90 0.9 S 7 11 4 6 1003.6 1003.2 0.0
15/04:30am 15.3 15.1 13.7 90 0.9 SW 7 9 4 5 1003.6 1003.2 0.0
15/04:00am 15.0 14.6 12.9 87 1.2 W 7 9 4 5 1003.8 1003.4 0.0
15/03:30am 15.4 16.3 12.9 85 1.4 CALM 0 0 0 0 1004.0 1003.6 0.0
15/03:00am 15.4 14.9 12.7 84 1.5 WSW 7 9 4 5 1004.0 1003.6 0.0
15/02:30am 15.4 14.8 12.2 81 1.8 WSW 7 9 4 5 1004.1 1003.7 0.0
15/02:00am 15.9 14.8 11.9 77 2.2 WNW 9 13 5 7 1004.6 1004.2 0.0
15/01:30am 16.1 15.6 12.8 81 1.8 W 7 9 4 5 1004.6 1004.2 0.0
15/01:00am 16.3 16.5 13.2 82 1.7 W 4 7 2 4 1004.9 1004.5 0.0
15/12:30am 16.9 16.8 13.8 82 1.8 WNW 7 13 4 7 1004.9 1004.5 0.0
15/12:00am 16.9 17.1 13.2 79 2.1 SE 4 6 2 3 1005.0 1004.6 0.0
 
Date/Time
EDT
Temp
°C
App
Temp
°C
Dew
Point
°C
Rel
Hum
%
Delta-T
°C
Wind Press
QNH
hPa
Press
MSL
hPa
Rain since
9am
mm
Dir  Spd
km/h
Gust
km/h
Spd
kts
Gust
kts
14/11:30pm 17.3 17.7 13.6 79 2.1 WNW 4 9 2 5 1005.1 1004.7 0.0
14/11:00pm 17.9 17.6 13.4 75 2.6 SW 7 9 4 5 1005.1 1004.7 0.0
14/10:30pm 18.2 17.7 13.7 75 2.6 SW 9 13 5 7 1004.8 1004.4 0.0
14/10:00pm 18.7 18.7 13.6 72 2.9 S 6 9 3 5 1004.7 1004.3 0.0
14/09:30pm 19.6 20.6 13.3 67 3.6 CALM 0 2 0 1 1004.8 1004.4 0.0
14/09:00pm 20.5 18.9 12.7 61 4.4 SSE 13 15 7 8 1004.3 1003.9 0.0
14/08:30pm 21.4 19.0 12.8 58 4.9 SSE 17 24 9 13 1003.7 1003.3 0.0
14/08:00pm 23.5 21.5 7.2 35 8.6 ENE 7 11 4 6 1003.5 1003.1 0.0
14/07:30pm 23.8 20.6 7.0 34 8.8 NE 13 17 7 9 1003.4 1003.0 0.0
14/07:00pm 24.2 20.5 6.5 32 9.2 NE 15 22 8 12 1003.2 1002.8 0.0
14/06:30pm 24.4 21.3 7.1 33 9.1 NE 13 20 7 11 1002.8 1002.4 0.0
14/06:00pm 24.6 21.1 7.3 33 9.2 NE 15 24 8 13 1002.6 1002.2 0.0
14/05:30pm 24.2 20.5 6.5 32 9.2 NE 15 28 8 15 1002.7 1002.3 0.0
14/05:00pm 24.2 20.2 6.5 32 9.2 NE 17 28 9 15 1002.8 1002.4 0.0
14/04:30pm 24.2 21.7 8.2 36 8.6 NNE 11 22 6 12 1003.0 1002.6 0.0
14/04:00pm 24.2 20.2 8.2 36 8.6 NNE 19 28 10 15 1003.2 1002.8 0.0
14/03:30pm 23.4 19.6 7.5 36 8.4 ENE 17 26 9 14 1003.1 1002.7 0.0
14/03:00pm 23.4 19.1 7.1 35 8.5 NNE 19 32 10 17 1003.1 1002.7 0.0
14/02:30pm 23.0 19.1 8.7 40 7.7 NE 19 28 10 15 1003.3 1002.9 0.0
14/02:00pm 22.2 17.6 8.3 41 7.4 NNE 22 35 12 19 1003.5 1003.1 0.0
14/01:30pm 21.5 17.4 7.7 41 7.2 NNE 19 28 10 15 1003.7 1003.3 0.0
14/01:00pm 21.6 17.7 8.8 44 6.8 NE 19 30 10 16 1003.6 1003.2 0.0
14/12:30pm 21.6 18.2 10.4 49 6.1 NNE 19 32 10 17 1003.4 1003.0 0.0
14/12:00pm 20.7 17.4 10.8 53 5.5 NNE 19 30 10 16 1003.3 1002.9 0.0
14/11:30am 20.4 16.8 10.5 53 5.4 NNE 20 32 11 17 1003.4 1003.0 0.0
14/11:00am 20.1 17.8 13.1 64 4.0 NNE 17 24 9 13 1003.4 1003.0 0.0
14/10:30am 19.4 17.8 12.7 65 3.8 NE 13 22 7 12 1003.4 1003.0 0.0
14/10:00am 18.5 17.1 13.4 72 2.9 NE 13 20 7 11 1003.2 1002.8 0.0
14/09:30am 17.9 16.3 13.8 77 2.3 E 15 22 8 12 1003.4 1003.0 0.0
14/09:00am 16.4 15.9 13.9 85 1.4 E 9 15 5 8 1003.4 1003.0 15.0
14/08:44am 16.1 15.3 14.1 88 1.1 E 11 15 6 8 1003.4 1003.0 15.0
14/08:30am 15.8 15.3 13.8 88 1.1 ENE 9 15 5 8 1003.1 1002.7 15.0
14/08:15am 15.6 15.2 14.1 91 0.9 ENE 9 13 5 7 1002.9 1002.5 15.0
14/08:00am 15.3 14.6 14.2 93 0.6 E 11 17 6 9 1002.8 1002.4 15.0
14/07:59am 15.3 14.5 14.0 92 0.7 E 11 17 6 9 1002.8 1002.4 15.0
14/07:30am 14.4 15.7 14.1 98 0.2 CALM 0 6 0 3 1002.4 1002.0 15.0
14/07:00am 13.9 14.7 13.7 99 0.1 ESE 2 7 1 4 1001.6 1001.2 15.0
14/06:30am 13.4 14.4 13.2 99 0.1 CALM 0 7 0 4 1001.1 1000.6 15.0
14/06:00am 13.2 14.1 13.0 99 0.1 CALM 0 0 0 0 1000.7 1000.3 15.0
14/05:30am 13.0 12.7 12.7 98 0.2 E 6 9 3 5 1000.4 1000.0 15.0
14/05:06am 13.2 12.7 12.7 97 0.3 NE 7 9 4 5 1000.4 1000.0 15.0
14/05:00am 13.3 12.9 13.0 98 0.2 ENE 7 11 4 6 1000.4 1000.0 15.0
14/04:30am 13.6 13.0 13.4 99 0.1 ENE 9 13 5 7 1000.4 1000.0 15.0
14/04:00am 13.6 13.0 13.4 99 0.1 E 9 13 5 7 1000.0 999.6 15.0
14/03:30am 13.6 13.0 13.4 99 0.1 ENE 9 13 5 7 1000.2 999.8 15.0
14/03:29am 13.6 13.0 13.4 99 0.1 ENE 9 13 5 7 1000.2 999.8 15.0
14/03:00am 13.5 12.1 13.3 99 0.1 ENE 13 20 7 11 1000.0 999.6 15.0
14/02:30am 13.1 11.5 12.9 99 0.1 ENE 13 17 7 9 999.6 999.2 15.0
14/02:00am 13.2 11.7 13.0 99 0.1 ENE 13 17 7 9 999.5 999.1 15.0
14/01:30am 13.3 11.8 13.1 99 0.1 E 13 19 7 10 999.3 998.9 14.8
14/01:00am 13.2 11.7 13.0 99 0.1 E 13 17 7 9 999.4 999.0 14.8
14/12:30am 13.4 12.3 13.2 99 0.1 ENE 11 17 6 9 999.3 998.9 14.8
14/12:00am 13.7 13.1 13.5 99 0.1 ENE 9 13 5 7 999.1 998.7 14.8
 
Date/Time
EDT
Temp
°C
App
Temp
°C
Dew
Point
°C
Rel
Hum
%
Delta-T
°C
Wind Press
QNH
hPa
Press
MSL
hPa
Rain since
9am
mm
Dir  Spd
km/h
Gust
km/h
Spd
kts
Gust
kts
13/11:30pm 13.8 12.9 13.6 99 0.1 NE 11 17 6 9 998.7 998.3 14.8
13/11:00pm 14.1 12.5 13.9 99 0.1 NNE 15 19 8 10 999.1 998.7 14.8
13/10:30pm 14.1 13.3 13.9 99 0.1 NNE 11 17 6 9 998.6 998.2 14.0
13/10:00pm 14.2 13.4 14.0 99 0.1 NE 11 15 6 8 998.4 998.0 13.6
13/09:30pm 14.1 12.9 13.9 99 0.1 NNW 13 17 7 9 997.1 996.7 11.6
13/09:00pm 14.1 12.1 13.9 99 0.1 NW 17 26 9 14 996.5 996.1 11.6
13/08:30pm 14.2 11.9 14.0 99 0.1 NNW 19 26 10 14 997.0 996.6 11.2
13/08:12pm 14.3 12.0 14.0 98 0.2 NNW 19 26 10 14 996.9 996.5 10.6
13/08:00pm 14.7 12.2 14.2 97 0.3 NW 20 33 11 18 996.6 996.2 9.4
13/07:46pm 15.5 11.6 14.4 93 0.6 NW 28 41 15 22 995.8 995.4 7.0
13/07:30pm 18.6 17.2 16.6 88 1.2 NNE 19 24 10 13 995.4 995.0 5.0
13/07:00pm 19.1 16.3 15.4 79 2.2 E 24 35 13 19 994.0 993.6 5.0
13/06:30pm 19.3 17.3 15.6 79 2.2 E 20 28 11 15 993.8 993.3 5.0
13/06:00pm 18.7 17.4 15.8 83 1.7 E 17 24 9 13 994.0 993.6 5.0
13/05:30pm 18.4 17.4 15.6 84 1.7 ENE 15 26 8 14 994.1 993.7 4.4
13/05:00pm 18.3 16.5 16.1 87 1.3 ESE 20 30 11 16 993.3 992.8 4.4
13/04:30pm 17.9 15.4 16.1 89 1.1 SE 24 35 13 19 993.6 993.1 4.4
13/04:00pm 17.3 14.0 16.0 92 0.8 SE 28 41 15 22 994.5 994.1 4.4
13/03:30pm 17.7 15.8 16.6 93 0.7 SE 22 30 12 16 996.4 996.0 3.8
13/03:00pm 18.3 16.5 15.9 86 1.4 SSE 20 28 11 15 997.4 997.0 2.8
13/02:30pm 18.8 17.3 16.2 85 1.6 SSE 19 28 10 15 996.3 995.9 1.8

Other Formats:

Comma delimited format used in spreadsheet applications
http://www.bom.gov.au/fwo/IDV60801/IDV60801.94875.axf

JavaScript Object Notation format (JSON) in row-major order
http://www.bom.gov.au/fwo/IDV60801/IDV60801.94875.json